SKAR/AXM METAR and TAF weather

Enter ICAO airport designator
Station Type Date Time Source
SKAR METAR 2020/04/10 19:00 UTC NOAA

SKAR 101900Z 27004KT 9999 SCT020 SCT100 29/20 A2998


Station Type Date Time Source
SKAR Decoded METAR 2020/04/10 19:00 UTC NOAA

Armenia / El Eden, Colombia (SKAR) 04-30N 075-43W 1219M
Apr 10, 2020 - 03:00 PM EDT / 2020.04.10 1900 UTC
Wind: from the W (270 degrees) at 5 MPH (4 KT):0
Visibility: greater than 7 mile(s):0
Sky conditions: partly cloudy
Temperature: 84 F (29 C)
Dew Point: 68 F (20 C)
Relative Humidity: 58%
Pressure (altimeter): 29.98 in. Hg (1015 hPa)
ob: SKAR 101900Z 27004KT 9999 SCT020 SCT100 29/20 A2998
cycle: 19

Station Type Date Time Source
SKAR TAF 2017/06/20 18:24 UTC NOAA

TAF TAF SKAR 201700Z 2018/2118 20006KT 9999 SCT023 BKN090
TEMPO 2021/2023 8000 VCSH SCT018TCU PROB40
TEMPO 2023/2101 7000 DZRA SCT017CB
BECMG 2101/2102 VRB02KT
TEMPO 2111/2113 7000 VCFG TX28/2019Z TN17/2111Z

Example: see airport list